Main page
METAR-TAF:

METAR-TAF

Airports :

Funchal, Madeira, Portugal

Madeira Airport

latitude: 32-41-52N, longitude: 016-46-28W, elevation: 59 m

Current weather observation

The report was made 29 minutes ago, at 11:30 UTC
Wind 11 kt from the North, varying between North/Northwest and North/Northeast
Temperature 24°C
Humidity 65%
Pressure 1027 hPa
Visibility 10 km or more
Scattered clouds at a height of 1500 ft

METAR: LPMA 211130Z 36011KT 330V030 9999 SCT015 24/17 Q1027

Time: 12:59 (11:59 UTC)

Forecast

The report was made 59 minutes ago, at 11:00 UTC
Forecast valid from 21 at 12 UTC to 22 at 12 UTC
Wind 13 kt from the North/Northeast
Visibility 10 km or more
Scattered clouds at a height of 1500 ft
Scattered clouds at a height of 3000 ft
Probability 30% :
Temporary
from 21 at 18 UTC to 22 at 09 UTC
Visibility: 6000 m
Few clouds at a height of 800 ft
Broken clouds at a height of 1500 ft
light rain, drizzle

TAF: LPMA 211100Z 2112/2212 02013KT 9999 SCT015 SCT030 PROB30 TEMPO 2118/2209 6000 -RADZ FEW008 BKN015

Weather observations and forecasts of more than 4000 airports (METAR and TAF reports).

The available stations are represented by yellow and red dots on the map.

Hover mouse over dot to see the name of the station.

Then click to see weather observations and forecasts.

To change the map : click on the green buttons with a black cross to zoom in, on the green button with a dash to zoom out, or on the green arrows for adjacent maps.


METAR-TAF: